createdAt,value
2023-02-19T00:01:34.271Z,79.88
2023-02-19T00:04:04.342Z,81.27
2023-02-19T00:06:33.303Z,83.23
2023-02-19T00:09:01.229Z,83.51
2023-02-19T00:11:31.642Z,82.93
2023-02-19T00:14:00.373Z,81.98
2023-02-19T00:16:30.592Z,82.43
2023-02-19T00:18:59.133Z,81.78
2023-02-19T00:21:26.691Z,81.81
2023-02-19T00:23:56.198Z,82.23
2023-02-19T00:26:23.888Z,82.48
2023-02-19T00:28:54.040Z,82.64
2023-02-19T00:31:26.312Z,82.82
2023-02-19T00:33:58.781Z,83.80
2023-02-19T00:36:27.184Z,83.92
2023-02-19T00:38:55.150Z,83.99
2023-02-19T00:41:24.194Z,83.93
2023-02-19T00:43:54.543Z,83.59
2023-02-19T00:46:33.893Z,83.40
2023-02-19T00:49:02.501Z,84.02
2023-02-19T00:51:32.373Z,85.11
2023-02-19T00:54:00.277Z,85.30
2023-02-19T00:56:27.907Z,84.91
2023-02-19T00:58:56.582Z,85.40
2023-02-19T01:01:24.088Z,85.31
2023-02-19T01:03:52.370Z,86.12
2023-02-19T01:06:20.888Z,86.05
2023-02-19T01:08:48.686Z,86.59
2023-02-19T01:11:16.413Z,86.42
2023-02-19T01:13:44.403Z,86.32
2023-02-19T01:16:17.959Z,87.35
2023-02-19T01:18:46.188Z,87.51
2023-02-19T01:21:22.796Z,86.60
2023-02-19T01:23:51.373Z,87.17
2023-02-19T01:26:23.908Z,87.58
2023-02-19T01:28:51.820Z,87.61
2023-02-19T01:31:21.849Z,88.20
2023-02-19T01:33:59.734Z,87.15
2023-02-19T01:36:28.530Z,87.88
2023-02-19T01:38:56.215Z,88.02
2023-02-19T01:41:24.977Z,86.13
2023-02-19T01:44:12.330Z,85.41
2023-02-19T01:46:41.502Z,86.62
2023-02-19T01:49:14.341Z,87.51
2023-02-19T01:51:48.328Z,87.76
2023-02-19T01:54:18.113Z,89.29
2023-02-19T01:56:46.579Z,88.29
2023-02-19T01:59:14.393Z,88.21
2023-02-19T02:01:44.314Z,88.21
2023-02-19T02:04:13.893Z,88.01
2023-02-19T02:06:51.884Z,88.05
2023-02-19T02:09:38.785Z,87.02
2023-02-19T02:12:06.650Z,86.61
2023-02-19T02:14:36.665Z,86.96
2023-02-19T02:17:10.145Z,86.49
2023-02-19T02:19:53.193Z,85.63
2023-02-19T02:22:24.748Z,86.13
2023-02-19T02:25:25.403Z,85.85
2023-02-19T02:28:06.998Z,86.89
2023-02-19T02:30:50.461Z,86.90
2023-02-19T02:33:57.549Z,85.49
2023-02-19T02:36:29.582Z,86.34
2023-02-19T02:38:58.399Z,84.98
2023-02-19T02:41:27.269Z,85.74
2023-02-19T02:43:55.226Z,86.25
2023-02-19T02:46:26.953Z,86.21
2023-02-19T02:49:06.256Z,84.69
2023-02-19T02:51:45.243Z,83.30
2023-02-19T02:54:45.618Z,83.58
2023-02-19T02:57:15.672Z,83.59
2023-02-19T02:59:50.014Z,83.22
2023-02-19T03:02:24.365Z,83.59
2023-02-19T03:05:24.050Z,83.40
2023-02-19T03:08:10.730Z,83.66
2023-02-19T03:10:45.870Z,82.75
2023-02-19T03:13:37.373Z,84.03
2023-02-19T03:16:44.998Z,85.58
2023-02-19T03:19:21.760Z,85.44
2023-02-19T03:22:01.030Z,85.27
2023-02-19T03:24:52.862Z,84.07
2023-02-19T03:27:21.926Z,84.03
2023-02-19T03:29:55.148Z,84.25
2023-02-19T03:32:28.261Z,84.12
2023-02-19T03:35:01.790Z,84.24
2023-02-19T03:37:33.514Z,84.82
2023-02-19T03:40:01.354Z,83.16
2023-02-19T03:42:37.658Z,83.26
2023-02-19T03:45:19.987Z,82.43
2023-02-19T03:48:15.300Z,83.08
2023-02-19T03:50:45.763Z,83.46
2023-02-19T03:53:42.674Z,82.67
2023-02-19T03:56:22.866Z,82.43
2023-02-19T03:59:06.015Z,82.04
2023-02-19T04:01:37.656Z,81.31
2023-02-19T04:04:17.139Z,82.03
2023-02-19T04:06:47.025Z,80.84
2023-02-19T04:09:15.125Z,80.08
2023-02-19T04:11:48.353Z,81.52
2023-02-19T04:14:35.023Z,82.56
2023-02-19T04:17:06.962Z,82.05
2023-02-19T04:19:38.009Z,81.45
2023-02-19T04:22:06.882Z,81.66
2023-02-19T04:24:41.093Z,81.92
2023-02-19T04:27:09.333Z,82.18
2023-02-19T04:29:39.106Z,82.15
2023-02-19T04:32:06.949Z,81.80
2023-02-19T04:34:34.538Z,81.00
2023-02-19T04:37:02.526Z,80.38
2023-02-19T04:39:29.956Z,80.04
2023-02-19T04:41:57.278Z,78.77
2023-02-19T04:44:24.859Z,79.73
2023-02-19T04:46:52.428Z,79.19
2023-02-19T04:49:20.106Z,79.16
2023-02-19T04:51:47.445Z,77.63
2023-02-19T04:54:14.781Z,77.32
2023-02-19T04:56:42.310Z,77.66
2023-02-19T04:59:10.265Z,77.66
2023-02-19T05:01:37.647Z,77.97
2023-02-19T05:04:05.334Z,78.54
2023-02-19T05:06:33.003Z,79.55
2023-02-19T05:09:00.628Z,78.50
2023-02-19T05:11:28.258Z,80.21
2023-02-19T05:13:56.689Z,79.99
2023-02-19T05:16:24.051Z,79.75
2023-02-19T05:18:51.729Z,79.79
2023-02-19T05:21:19.370Z,79.26
2023-02-19T05:23:46.820Z,79.81
2023-02-19T05:26:19.893Z,79.07
2023-02-19T05:28:50.212Z,79.37
2023-02-19T05:31:17.523Z,79.12
2023-02-19T05:33:45.912Z,79.54
2023-02-19T05:36:14.133Z,78.66
2023-02-19T05:38:42.100Z,78.50
2023-02-19T05:41:14.986Z,79.29
2023-02-19T05:43:44.250Z,78.51
2023-02-19T05:46:14.214Z,78.52
2023-02-19T05:48:41.656Z,77.87
2023-02-19T05:51:11.988Z,76.89
2023-02-19T05:53:40.190Z,77.45
2023-02-19T05:56:19.737Z,76.63
2023-02-19T05:58:47.204Z,75.50
2023-02-19T06:01:17.362Z,75.10
2023-02-19T06:03:45.047Z,76.13
2023-02-19T06:06:14.507Z,76.30
2023-02-19T06:08:42.082Z,75.91
2023-02-19T06:11:09.951Z,75.50
2023-02-19T06:13:37.416Z,75.14
2023-02-19T06:16:06.196Z,75.63
2023-02-19T06:18:34.438Z,75.07
2023-02-19T06:21:06.453Z,75.87
2023-02-19T06:23:33.746Z,75.20
2023-02-19T06:26:08.436Z,73.65
2023-02-19T06:28:36.260Z,72.93
2023-02-19T06:31:05.143Z,72.08
2023-02-19T06:33:33.354Z,72.47
2023-02-19T06:36:02.325Z,71.77
2023-02-19T06:38:30.617Z,72.47
2023-02-19T06:41:05.667Z,72.03
2023-02-19T06:43:33.761Z,71.69
2023-02-19T06:46:02.542Z,72.44
2023-02-19T06:48:31.063Z,70.91
2023-02-19T06:50:58.658Z,71.73
2023-02-19T06:53:25.971Z,71.52
2023-02-19T06:56:04.966Z,71.80
2023-02-19T06:58:33.217Z,72.71
2023-02-19T07:01:00.660Z,72.76
2023-02-19T07:03:28.267Z,72.23
2023-02-19T07:05:55.516Z,72.98
2023-02-19T07:08:23.034Z,73.82
2023-02-19T07:10:58.060Z,73.57
2023-02-19T07:13:27.031Z,72.61
2023-02-19T07:16:02.205Z,73.05
2023-02-19T07:18:29.941Z,73.64
2023-02-19T07:21:11.754Z,74.79
2023-02-19T07:23:40.158Z,73.76
2023-02-19T07:26:16.475Z,73.17
2023-02-19T07:28:45.045Z,72.45
2023-02-19T07:31:13.890Z,71.60
2023-02-19T07:33:44.916Z,74.31
2023-02-19T07:36:12.705Z,73.70
2023-02-19T07:38:40.178Z,73.68
2023-02-19T07:41:07.668Z,74.04
2023-02-19T07:43:36.754Z,73.31
2023-02-19T07:46:05.783Z,72.72
2023-02-19T07:48:34.982Z,73.44
2023-02-19T07:51:04.319Z,73.91
2023-02-19T07:53:33.272Z,74.52
2023-02-19T07:56:03.255Z,74.34
2023-02-19T07:58:31.210Z,73.82
2023-02-19T08:01:10.293Z,72.71
2023-02-19T08:03:40.144Z,72.63
2023-02-19T08:06:08.314Z,72.27
2023-02-19T08:08:35.705Z,72.55
2023-02-19T08:11:23.744Z,72.69
2023-02-19T08:13:52.151Z,72.19
2023-02-19T08:16:29.694Z,71.10
2023-02-19T08:19:08.253Z,70.65
2023-02-19T08:21:35.781Z,70.80
2023-02-19T08:24:03.388Z,70.17
2023-02-19T08:26:30.883Z,69.18
2023-02-19T08:28:59.070Z,69.70
2023-02-19T08:31:27.330Z,70.47
2023-02-19T08:33:56.012Z,70.48
2023-02-19T08:36:23.414Z,69.62
2023-02-19T08:38:50.914Z,70.40
2023-02-19T08:41:18.704Z,70.84
2023-02-19T08:43:46.054Z,70.15
2023-02-19T08:46:13.565Z,69.52
2023-02-19T08:48:41.196Z,69.31
2023-02-19T08:51:13.839Z,69.50
2023-02-19T08:53:42.348Z,67.64
2023-02-19T08:56:12.855Z,66.47
2023-02-19T08:58:41.189Z,66.43
2023-02-19T09:01:14.252Z,66.15
2023-02-19T09:03:42.591Z,65.84
2023-02-19T09:06:16.048Z,65.65
2023-02-19T09:08:43.527Z,64.72
2023-02-19T09:11:12.161Z,65.50
2023-02-19T09:13:40.225Z,65.20
2023-02-19T09:16:08.206Z,64.97
2023-02-19T09:18:36.371Z,64.46
2023-02-19T09:21:05.471Z,65.36
2023-02-19T09:23:34.626Z,63.05
2023-02-19T09:26:07.580Z,63.92
2023-02-19T09:28:35.773Z,64.81
2023-02-19T09:31:08.038Z,64.02
2023-02-19T09:33:36.317Z,66.19
2023-02-19T09:36:04.436Z,65.65
2023-02-19T09:38:32.037Z,66.28
2023-02-19T09:41:00.365Z,66.89
2023-02-19T09:43:29.065Z,67.30
2023-02-19T09:46:24.262Z,67.07
2023-02-19T09:48:53.618Z,67.65
2023-02-19T09:51:22.020Z,68.97
2023-02-19T09:53:51.250Z,67.34
2023-02-19T09:56:18.576Z,68.26
2023-02-19T09:58:51.171Z,65.77
2023-02-19T10:01:19.252Z,65.75
2023-02-19T10:03:48.450Z,63.98
2023-02-19T10:06:25.565Z,64.10
2023-02-19T10:09:11.501Z,66.07
2023-02-19T10:11:39.159Z,61.82
2023-02-19T10:14:09.602Z,58.64
2023-02-19T10:16:41.027Z,60.97
2023-02-19T10:19:15.156Z,62.30
2023-02-19T10:21:42.945Z,62.41
2023-02-19T10:24:17.529Z,61.47
2023-02-19T10:26:44.838Z,61.58
2023-02-19T10:29:12.314Z,60.15
2023-02-19T10:31:39.786Z,61.68
2023-02-19T10:34:18.444Z,60.91
2023-02-19T10:36:48.328Z,62.61
2023-02-19T10:39:22.032Z,63.65
2023-02-19T10:41:50.793Z,63.76
2023-02-19T10:44:21.999Z,63.56
2023-02-19T10:46:51.706Z,64.25
2023-02-19T10:49:38.259Z,64.43
2023-02-19T10:52:20.801Z,63.91
2023-02-19T10:54:53.368Z,63.66
2023-02-19T10:57:30.439Z,64.31
2023-02-19T11:00:01.843Z,64.60
2023-02-19T11:02:30.528Z,64.21
2023-02-19T11:05:15.433Z,63.37
2023-02-19T11:07:46.593Z,63.15
2023-02-19T11:10:22.715Z,62.94
2023-02-19T11:12:52.291Z,63.38
2023-02-19T11:15:24.011Z,62.91
2023-02-19T11:18:13.948Z,63.12
2023-02-19T11:20:57.919Z,63.93
2023-02-19T11:23:30.290Z,63.49
2023-02-19T11:26:00.975Z,62.62
2023-02-19T11:28:36.560Z,62.98
2023-02-19T11:31:27.591Z,62.68
2023-02-19T11:34:26.131Z,62.53
2023-02-19T11:37:13.910Z,61.42
2023-02-19T11:39:44.054Z,60.68
2023-02-19T11:42:29.584Z,61.04
2023-02-19T11:45:23.784Z,60.94
2023-02-19T11:48:09.636Z,60.90
2023-02-19T11:50:59.064Z,61.47
2023-02-19T11:53:27.962Z,62.01
2023-02-19T11:56:08.559Z,62.97
2023-02-19T11:58:48.019Z,63.63
2023-02-19T12:01:29.637Z,65.13
2023-02-19T12:04:32.225Z,64.62
2023-02-19T12:07:16.981Z,62.83
2023-02-19T12:09:50.593Z,64.05
2023-02-19T12:12:37.878Z,65.44
2023-02-19T12:15:24.514Z,65.50
2023-02-19T12:18:19.197Z,65.99
2023-02-19T12:20:49.544Z,66.24
2023-02-19T12:23:54.492Z,66.65
2023-02-19T12:26:41.030Z,65.73
2023-02-19T12:29:26.598Z,66.19
2023-02-19T12:32:44.789Z,65.37
2023-02-19T12:35:46.066Z,65.77
2023-02-19T12:38:16.200Z,64.43
2023-02-19T12:40:43.656Z,65.23
2023-02-19T12:43:24.421Z,64.16
2023-02-19T12:46:20.430Z,62.51
2023-02-19T12:49:00.341Z,64.07
2023-02-19T12:51:33.959Z,63.67
2023-02-19T12:54:06.325Z,62.54
2023-02-19T12:56:42.833Z,63.27
2023-02-19T12:59:26.722Z,62.66
2023-02-19T13:02:12.773Z,62.54
2023-02-19T13:05:05.140Z,62.79
2023-02-19T13:07:52.729Z,63.44
2023-02-19T13:10:41.431Z,62.35
2023-02-19T13:13:32.347Z,62.58
2023-02-19T13:16:10.340Z,60.74
2023-02-19T13:18:49.456Z,60.81
2023-02-19T13:21:38.227Z,59.63
2023-02-19T13:24:13.684Z,58.62
2023-02-19T13:27:12.407Z,59.24
2023-02-19T13:30:05.002Z,59.38
2023-02-19T13:32:49.425Z,59.43
2023-02-19T13:35:54.176Z,59.96
2023-02-19T13:38:21.824Z,59.89
2023-02-19T13:40:57.295Z,59.13
2023-02-19T13:43:28.807Z,59.25
2023-02-19T13:46:22.461Z,60.81
2023-02-19T13:49:28.065Z,59.01
2023-02-19T13:52:02.608Z,60.27
2023-02-19T13:54:33.471Z,60.19
2023-02-19T13:57:26.666Z,59.59
2023-02-19T13:59:55.533Z,58.74
2023-02-19T14:02:23.111Z,57.99
2023-02-19T14:05:44.588Z,57.21
2023-02-19T14:08:12.196Z,57.80
2023-02-19T14:10:53.988Z,58.40
2023-02-19T14:13:52.432Z,56.31
2023-02-19T14:16:41.280Z,56.57
2023-02-19T14:19:36.011Z,58.38
2023-02-19T14:22:41.934Z,57.76
2023-02-19T14:25:24.116Z,58.39
2023-02-19T14:27:52.964Z,59.06
2023-02-19T14:30:21.855Z,58.21
2023-02-19T14:32:54.613Z,58.71
2023-02-19T14:35:32.396Z,58.76
2023-02-19T14:37:59.777Z,59.18
2023-02-19T14:40:33.903Z,58.28
2023-02-19T14:43:01.706Z,58.18
2023-02-19T14:45:30.028Z,58.15
2023-02-19T14:47:58.532Z,59.35
2023-02-19T14:50:31.584Z,59.60
2023-02-19T14:53:01.767Z,61.06
2023-02-19T14:55:29.003Z,60.73
2023-02-19T14:57:58.930Z,59.38
2023-02-19T15:00:30.224Z,60.35
2023-02-19T15:02:59.810Z,59.70
2023-02-19T15:05:29.401Z,59.92
2023-02-19T15:08:00.285Z,58.74
2023-02-19T15:10:29.571Z,58.35
2023-02-19T15:13:00.186Z,58.54
2023-02-19T15:15:29.831Z,59.22
2023-02-19T15:17:57.773Z,59.36
2023-02-19T15:20:38.697Z,58.55
2023-02-19T15:23:07.570Z,58.23
2023-02-19T15:25:37.624Z,58.59
2023-02-19T15:28:23.893Z,59.14
2023-02-19T15:30:57.550Z,58.73
2023-02-19T15:33:27.326Z,58.08
2023-02-19T15:36:08.195Z,57.58
2023-02-19T15:38:35.747Z,57.44
2023-02-19T15:41:03.435Z,58.38
2023-02-19T15:43:39.544Z,57.51
2023-02-19T15:46:11.858Z,57.66
2023-02-19T15:48:46.564Z,57.81
2023-02-19T15:51:18.902Z,58.06
2023-02-19T15:53:50.342Z,57.69
2023-02-19T15:56:28.296Z,58.00
2023-02-19T15:59:07.310Z,57.93
2023-02-19T16:01:37.270Z,58.05
2023-02-19T16:04:10.125Z,58.14
2023-02-19T16:07:23.543Z,58.34
2023-02-19T16:10:05.959Z,57.33
2023-02-19T16:12:33.516Z,56.88
2023-02-19T16:15:12.327Z,57.99
2023-02-19T16:17:43.575Z,58.16
2023-02-19T16:20:21.796Z,58.98
2023-02-19T16:22:50.042Z,58.57
2023-02-19T16:25:33.100Z,59.38
2023-02-19T16:28:11.095Z,59.68
2023-02-19T16:30:39.109Z,59.36
2023-02-19T16:33:39.924Z,58.42
2023-02-19T16:36:28.917Z,58.35
2023-02-19T16:38:59.991Z,57.69
2023-02-19T16:41:27.521Z,56.72
2023-02-19T16:43:54.913Z,57.51
2023-02-19T16:46:22.592Z,57.12
2023-02-19T16:48:50.358Z,57.16
2023-02-19T16:51:24.376Z,56.94
2023-02-19T16:53:52.104Z,56.66
2023-02-19T16:56:22.994Z,57.69
2023-02-19T16:58:52.557Z,57.60
2023-02-19T17:01:19.950Z,57.45
2023-02-19T17:03:47.754Z,57.29
2023-02-19T17:06:15.970Z,57.28
2023-02-19T17:08:46.160Z,57.48
2023-02-19T17:11:14.813Z,57.15
2023-02-19T17:13:43.047Z,57.28
2023-02-19T17:16:19.495Z,57.16
2023-02-19T17:18:47.045Z,57.32
2023-02-19T17:21:21.072Z,58.16
2023-02-19T17:23:49.122Z,58.00
2023-02-19T17:26:18.544Z,58.47
2023-02-19T17:28:46.621Z,59.11
2023-02-19T17:31:17.048Z,59.07
2023-02-19T17:33:44.976Z,59.67
2023-02-19T17:36:32.425Z,59.38
2023-02-19T17:39:00.890Z,59.64
2023-02-19T17:41:29.271Z,59.16
2023-02-19T17:43:57.174Z,59.42
2023-02-19T17:46:26.886Z,59.51
2023-02-19T17:48:54.568Z,60.08
2023-02-19T17:51:24.720Z,60.22
2023-02-19T17:53:52.107Z,60.26
2023-02-19T17:56:22.086Z,60.69
2023-02-19T17:58:50.733Z,60.75
2023-02-19T18:01:18.405Z,61.13
2023-02-19T18:03:45.836Z,60.30
2023-02-19T18:06:13.463Z,59.92
2023-02-19T18:08:47.020Z,59.80
2023-02-19T18:11:14.479Z,60.03
2023-02-19T18:13:41.770Z,60.20
2023-02-19T18:16:10.046Z,61.46
2023-02-19T18:18:38.134Z,61.52
2023-02-19T18:21:09.352Z,61.38
2023-02-19T18:23:37.176Z,61.52
2023-02-19T18:26:07.921Z,61.54
2023-02-19T18:28:35.751Z,61.25
2023-02-19T18:31:06.384Z,61.88
2023-02-19T18:33:35.487Z,62.70
2023-02-19T18:36:03.934Z,61.70
2023-02-19T18:38:31.493Z,61.54
2023-02-19T18:40:59.068Z,61.60
2023-02-19T18:43:26.750Z,61.45
2023-02-19T18:45:54.264Z,61.31
2023-02-19T18:48:21.611Z,61.64
2023-02-19T18:50:50.547Z,61.78
2023-02-19T18:53:18.056Z,62.78
2023-02-19T18:55:45.681Z,62.70
2023-02-19T18:58:13.131Z,62.73
2023-02-19T19:00:40.874Z,62.83
2023-02-19T19:03:08.359Z,62.81
2023-02-19T19:05:36.156Z,62.91
2023-02-19T19:08:07.108Z,63.29
2023-02-19T19:10:34.558Z,63.70
2023-02-19T19:13:02.137Z,64.46
2023-02-19T19:15:29.543Z,64.04
2023-02-19T19:17:57.168Z,63.92
2023-02-19T19:20:24.755Z,64.18
2023-02-19T19:22:53.360Z,64.59
2023-02-19T19:25:21.803Z,64.43
2023-02-19T19:27:52.485Z,64.85
2023-02-19T19:30:20.825Z,65.47
2023-02-19T19:32:49.677Z,65.45
2023-02-19T19:35:22.710Z,65.27
2023-02-19T19:37:50.244Z,65.12
2023-02-19T19:40:18.517Z,65.14
2023-02-19T19:42:46.367Z,64.72
2023-02-19T19:45:14.602Z,65.47
2023-02-19T19:47:42.785Z,65.89
2023-02-19T19:50:12.093Z,65.81
2023-02-19T19:52:39.558Z,65.80
2023-02-19T19:55:07.965Z,65.46
2023-02-19T19:57:35.468Z,65.08
2023-02-19T20:00:04.591Z,65.17
2023-02-19T20:02:39.865Z,64.53
2023-02-19T20:05:07.387Z,64.95
2023-02-19T20:07:34.733Z,65.09
2023-02-19T20:10:02.988Z,65.18
2023-02-19T20:12:30.529Z,65.45
2023-02-19T20:14:57.807Z,65.29
2023-02-19T20:17:27.468Z,65.10
2023-02-19T20:19:55.383Z,65.56
2023-02-19T20:22:22.856Z,66.14
2023-02-19T20:24:55.785Z,66.60
2023-02-19T20:27:23.431Z,66.30
2023-02-19T20:29:51.275Z,66.41
2023-02-19T20:32:21.835Z,66.49
2023-02-19T20:34:49.529Z,66.73
2023-02-19T20:37:17.393Z,67.63
2023-02-19T20:39:44.899Z,67.21
2023-02-19T20:42:16.698Z,67.55
2023-02-19T20:44:44.688Z,67.96
2023-02-19T20:47:12.331Z,68.34
2023-02-19T20:49:44.720Z,66.98
2023-02-19T20:52:14.313Z,67.45
2023-02-19T20:54:42.820Z,68.02
2023-02-19T20:57:11.021Z,68.14
2023-02-19T20:59:38.895Z,68.39
2023-02-19T21:02:18.574Z,68.37
2023-02-19T21:04:46.338Z,67.94
2023-02-19T21:07:13.808Z,68.12
2023-02-19T21:09:41.113Z,68.14
2023-02-19T21:12:08.722Z,67.88
2023-02-19T21:14:36.135Z,67.42
2023-02-19T21:17:03.748Z,67.78
2023-02-19T21:19:31.170Z,67.90
2023-02-19T21:21:58.402Z,68.27
2023-02-19T21:24:26.320Z,68.49
2023-02-19T21:26:53.769Z,68.30
2023-02-19T21:29:22.255Z,74.73
2023-02-19T21:31:51.888Z,80.89
2023-02-19T21:34:21.754Z,66.78
2023-02-19T21:36:49.897Z,57.37
2023-02-19T21:39:20.032Z,60.52
2023-02-19T21:41:47.651Z,62.08
2023-02-19T21:44:15.345Z,64.56
2023-02-19T21:46:42.971Z,65.87
2023-02-19T21:49:11.700Z,67.97
2023-02-19T21:51:41.382Z,68.71
2023-02-19T21:54:14.321Z,68.44
2023-02-19T21:56:41.877Z,67.89
2023-02-19T21:59:09.261Z,68.69
2023-02-19T22:01:42.203Z,69.82
2023-02-19T22:04:11.682Z,70.00
2023-02-19T22:06:41.804Z,69.41
2023-02-19T22:09:09.354Z,70.63
2023-02-19T22:11:36.744Z,70.50
2023-02-19T22:14:04.189Z,70.43
2023-02-19T22:16:31.648Z,71.17
2023-02-19T22:18:59.704Z,71.85
2023-02-19T22:21:32.410Z,72.38
2023-02-19T22:24:01.199Z,71.63
2023-02-19T22:26:34.132Z,71.54
2023-02-19T22:29:07.402Z,71.05
2023-02-19T22:31:35.882Z,70.62
2023-02-19T22:34:04.163Z,71.09
2023-02-19T22:36:37.244Z,70.82
2023-02-19T22:39:06.908Z,70.78
2023-02-19T22:41:34.492Z,70.91
2023-02-19T22:44:02.229Z,70.45
2023-02-19T22:46:30.535Z,70.11
2023-02-19T22:49:01.552Z,69.78
2023-02-19T22:51:30.110Z,69.74
2023-02-19T22:53:58.613Z,69.96
2023-02-19T22:56:27.902Z,70.95
2023-02-19T22:58:56.824Z,70.80
2023-02-19T23:01:24.890Z,70.43
2023-02-19T23:03:57.633Z,71.60
2023-02-19T23:06:26.011Z,72.73
2023-02-19T23:08:54.434Z,73.02
2023-02-19T23:11:23.936Z,72.46
2023-02-19T23:13:51.729Z,72.62
2023-02-19T23:16:19.282Z,72.22
2023-02-19T23:18:46.635Z,72.65
2023-02-19T23:21:14.307Z,73.19
2023-02-19T23:23:42.714Z,74.55
2023-02-19T23:26:10.763Z,74.34
2023-02-19T23:28:40.231Z,74.13
2023-02-19T23:31:07.779Z,73.91
2023-02-19T23:33:35.596Z,73.72
2023-02-19T23:36:03.249Z,73.45
2023-02-19T23:38:30.510Z,73.00
2023-02-19T23:40:58.931Z,73.04
2023-02-19T23:43:26.272Z,72.95
2023-02-19T23:45:53.804Z,74.41
2023-02-19T23:48:21.245Z,74.80
2023-02-19T23:50:49.099Z,74.63
2023-02-19T23:53:16.621Z,74.55
2023-02-19T23:55:44.041Z,74.61
2023-02-19T23:58:11.365Z,74.48
